Omak, Washington
Current Conditions -  °F | °C
As of 5:53 AM on Thursday 23 Oct 2014 (Local Time) from KOMK Reporting Station
Clear Clear  
Wind Chill: 52°   Ceiling: Unl
Heat Index: 52°   Visibility: 10mi
Dew Point: 41°   Wind: 7mph
Humidity: 66%   Direction: 210°SSW
Pressure: 29.71"   Gusts: NA
Location:  48.41°N, 119.53°W
Report Text: KOMK 231253Z AUTO 21006KT 10SM CLR 11/05 A2971 RMK AO2 SLP063 T01110050
Loading
Personal Weather Stations






























Interactive Weather Map New forecast layout! Learn more

10-Day Weather Forecast

Advertisements
Track Severe Weather on mobile